Time,TemperatureF,DewpointF,PressureIn,WindDirection,WindDirectionDegrees,WindSpeedMPH,WindSpeedGustMPH,Humidity,HourlyPrecipIn,Conditions,Clouds,dailyrainin,SolarRadiationWatts/m^2,SoftwareType,DateUTC
2013-04-20 00:05:00,58.0,44.2,30.01,NW,316,0.0,0.0,60,0.00,,,0.00,0,Wunderground v.1.15,2013-04-20 07:05:00,
2013-04-20 00:15:00,57.4,44.1,30.01,NW,316,0.0,0.0,61,0.00,,,0.00,0,Wunderground v.1.15,2013-04-20 07:15:00,
2013-04-20 00:24:00,57.1,43.8,30.01,NW,316,0.0,0.0,61,0.00,,,0.00,0,Wunderground v.1.15,2013-04-20 07:24:00,
2013-04-20 00:29:00,56.9,44.8,30.01,NW,316,0.0,0.0,64,0.00,,,0.00,0,Wunderground v.1.15,2013-04-20 07:29:00,
2013-04-20 00:39:00,56.8,42.2,30.00,NW,316,0.0,0.0,58,0.00,,,0.00,0,Wunderground v.1.15,2013-04-20 07:39:00,
2013-04-20 00:44:00,56.7,41.6,30.01,NW,316,0.0,0.0,57,0.00,,,0.00,0,Wunderground v.1.15,2013-04-20 07:44:00,
2013-04-20 00:50:00,56.6,41.5,30.00,NW,316,0.0,0.0,57,0.00,,,0.00,0,Wunderground v.1.15,2013-04-20 07:50:00,
2013-04-20 00:59:00,56.4,42.7,29.99,NW,316,0.0,0.0,60,0.00,,,0.00,0,Wunderground v.1.15,2013-04-20 07:59:00,
2013-04-20 01:05:00,56.3,46.3,29.99,NW,316,0.0,0.0,69,0.00,,,0.00,0,Wunderground v.1.15,2013-04-20 08:05:00,
2013-04-20 01:14:00,56.0,45.6,30.00,NW,316,0.0,0.0,68,0.00,,,0.00,0,Wunderground v.1.15,2013-04-20 08:14:00,
2013-04-20 01:20:00,55.6,45.6,30.00,NW,316,0.0,0.0,69,0.00,,,0.00,0,Wunderground v.1.15,2013-04-20 08:20:00,
2013-04-20 01:29:00,55.0,41.4,29.99,NW,316,0.0,0.0,60,0.00,,,0.00,0,Wunderground v.1.15,2013-04-20 08:29:00,
2013-04-20 01:34:00,55.0,41.8,29.99,NW,316,0.0,0.0,61,0.00,,,0.00,0,Wunderground v.1.15,2013-04-20 08:34:00,
2013-04-20 01:40:00,55.0,41.8,29.99,NW,316,0.0,0.0,61,0.00,,,0.00,0,Wunderground v.1.15,2013-04-20 08:40:00,
2013-04-20 01:45:00,55.1,42.3,29.99,NW,316,0.0,0.0,62,0.00,,,0.00,0,Wunderground v.1.15,2013-04-20 08:45:00,
2013-04-20 01:54:00,54.9,42.1,29.98,NW,316,0.0,0.0,62,0.00,,,0.00,0,Wunderground v.1.15,2013-04-20 08:54:00,
2013-04-20 01:59:00,54.7,41.5,29.98,NW,316,0.0,0.0,61,0.00,,,0.00,0,Wunderground v.1.15,2013-04-20 08:59:00,
2013-04-20 02:05:00,54.5,40.9,29.98,NW,316,0.0,0.0,60,0.00,,,0.00,0,Wunderground v.1.15,2013-04-20 09:05:00,
2013-04-20 02:14:00,54.2,37.9,29.97,NW,316,0.0,0.0,54,0.00,,,0.00,0,Wunderground v.1.15,2013-04-20 09:14:00,
2013-04-20 02:19:00,54.2,38.4,29.97,NW,316,0.0,0.0,55,0.00,,,0.00,0,Wunderground v.1.15,2013-04-20 09:19:00,
2013-04-20 02:24:00,54.3,38.5,29.97,NW,316,0.0,0.0,55,0.00,,,0.00,0,Wunderground v.1.15,2013-04-20 09:24:00,
2013-04-20 02:29:00,54.4,38.6,29.96,NW,316,0.0,0.0,55,0.00,,,0.00,0,Wunderground v.1.15,2013-04-20 09:29:00,
2013-04-20 02:39:00,54.8,38.9,29.96,NW,316,0.0,0.0,55,0.00,,,0.00,0,Wunderground v.1.15,2013-04-20 09:39:00,
2013-04-20 02:44:00,55.0,38.6,29.96,NW,316,0.0,0.0,54,0.00,,,0.00,0,Wunderground v.1.15,2013-04-20 09:44:00,
2013-04-20 02:49:00,55.1,38.7,29.96,NW,316,0.0,0.0,54,0.00,,,0.00,0,Wunderground v.1.15,2013-04-20 09:49:00,
2013-04-20 02:54:00,55.1,38.7,29.96,NW,316,0.0,0.0,54,0.00,,,0.00,0,Wunderground v.1.15,2013-04-20 09:54:00,
2013-04-20 03:05:00,55.0,38.6,29.96,SSW,197,0.0,0.0,54,0.00,,,0.00,0,Wunderground v.1.15,2013-04-20 10:05:00,
2013-04-20 03:15:00,55.0,39.1,29.96,SSW,197,0.0,0.0,55,0.00,,,0.00,0,Wunderground v.1.15,2013-04-20 10:15:00,
2013-04-20 03:25:00,54.8,38.9,29.96,SSW,197,0.0,0.0,55,0.00,,,0.00,0,Wunderground v.1.15,2013-04-20 10:25:00,
2013-04-20 03:34:00,54.5,38.7,29.95,SSW,197,0.0,0.0,55,0.00,,,0.00,0,Wunderground v.1.15,2013-04-20 10:34:00,
2013-04-20 03:44:00,54.3,38.5,29.95,SSW,197,0.0,0.0,55,0.00,,,0.00,0,Wunderground v.1.15,2013-04-20 10:44:00,
2013-04-20 03:49:00,54.2,38.4,29.95,SSW,197,0.0,0.0,55,0.00,,,0.00,0,Wunderground v.1.15,2013-04-20 10:49:00,
2013-04-20 03:55:00,54.1,38.3,29.95,SSW,197,0.0,0.0,55,0.00,,,0.00,0,Wunderground v.1.15,2013-04-20 10:55:00,
2013-04-20 04:05:00,54.1,38.7,29.95,SSW,197,0.0,0.0,56,0.00,,,0.00,0,Wunderground v.1.15,2013-04-20 11:05:00,
2013-04-20 04:14:00,54.1,38.7,29.95,SSW,197,0.0,0.0,56,0.00,,,0.00,0,Wunderground v.1.15,2013-04-20 11:14:00,
2013-04-20 04:20:00,54.0,38.6,29.95,SSW,197,0.0,0.0,56,0.00,,,0.00,0,Wunderground v.1.15,2013-04-20 11:20:00,
2013-04-20 04:25:00,53.8,38.5,29.95,SSW,197,0.0,0.0,56,0.00,,,0.00,0,Wunderground v.1.15,2013-04-20 11:25:00,
2013-04-20 04:34:00,53.4,38.1,29.95,SSW,197,0.0,0.0,56,0.00,,,0.00,0,Wunderground v.1.15,2013-04-20 11:34:00,
2013-04-20 04:39:00,53.1,37.8,29.95,SSW,197,0.0,0.0,56,0.00,,,0.00,0,Wunderground v.1.15,2013-04-20 11:39:00,
2013-04-20 04:44:00,53.0,36.8,29.94,SSW,197,0.0,0.0,54,0.00,,,0.00,0,Wunderground v.1.15,2013-04-20 11:44:00,
2013-04-20 04:49:00,52.8,37.1,29.94,SSW,197,0.0,0.0,55,0.00,,,0.00,0,Wunderground v.1.15,2013-04-20 11:49:00,
2013-04-20 04:55:00,52.5,36.8,29.94,SSW,197,0.0,0.0,55,0.00,,,0.00,0,Wunderground v.1.15,2013-04-20 11:55:00,
2013-04-20 05:05:00,52.0,37.2,29.94,SSW,197,0.0,0.0,57,0.00,,,0.00,0,Wunderground v.1.15,2013-04-20 12:05:00,
2013-04-20 05:14:00,51.7,36.0,29.94,SSW,197,0.0,0.0,55,0.00,,,0.00,0,Wunderground v.1.15,2013-04-20 12:14:00,
2013-04-20 05:20:00,51.6,35.9,29.94,SSW,197,0.0,0.0,55,0.00,,,0.00,0,Wunderground v.1.15,2013-04-20 12:20:00,
2013-04-20 05:29:00,51.1,35.5,29.94,SSW,197,0.0,0.0,55,0.00,,,0.00,0,Wunderground v.1.15,2013-04-20 12:29:00,
2013-04-20 05:40:00,50.5,35.8,29.94,SSW,197,0.0,0.0,57,0.00,,,0.00,0,Wunderground v.1.15,2013-04-20 12:40:00,
2013-04-20 05:49:00,50.2,37.7,29.94,SSW,197,0.0,0.0,62,0.00,,,0.00,0,Wunderground v.1.15,2013-04-20 12:49:00,
2013-04-20 05:54:00,50.1,38.0,29.94,SSW,197,0.0,0.0,63,0.00,,,0.00,0,Wunderground v.1.15,2013-04-20 12:54:00,
2013-04-20 05:59:00,50.0,38.7,29.94,SSW,197,0.0,0.0,65,0.00,,,0.00,0,Wunderground v.1.15,2013-04-20 12:59:00,
2013-04-20 06:05:00,49.9,38.2,29.94,SSW,197,0.0,0.0,64,0.00,,,0.00,0,Wunderground v.1.15,2013-04-20 13:05:00,
2013-04-20 06:14:00,50.0,39.1,29.94,SSW,197,0.0,0.0,66,0.00,,,0.00,0,Wunderground v.1.15,2013-04-20 13:14:00,
2013-04-20 06:19:00,50.0,39.1,29.94,SSW,197,0.0,0.0,66,0.00,,,0.00,0,Wunderground v.1.15,2013-04-20 13:19:00,
2013-04-20 06:24:00,49.9,38.6,29.94,SSW,197,0.0,0.0,65,0.00,,,0.00,0,Wunderground v.1.15,2013-04-20 13:24:00,
2013-04-20 06:29:00,49.7,38.8,29.95,SSW,197,0.0,0.0,66,0.00,,,0.00,0,Wunderground v.1.15,2013-04-20 13:29:00,
2013-04-20 06:39:00,49.7,39.2,29.95,SSW,197,0.0,0.0,67,0.00,,,0.00,0,Wunderground v.1.15,2013-04-20 13:39:00,
2013-04-20 06:45:00,49.7,39.2,29.95,SSW,197,0.0,0.0,67,0.00,,,0.00,0,Wunderground v.1.15,2013-04-20 13:45:00,
2013-04-20 06:54:00,50.1,40.7,29.95,SSW,197,0.0,0.0,70,0.00,,,0.00,0,Wunderground v.1.15,2013-04-20 13:54:00,
2013-04-20 06:59:00,50.4,41.0,29.95,SSW,197,0.0,0.0,70,0.00,,,0.00,0,Wunderground v.1.15,2013-04-20 13:59:00,
2013-04-20 07:05:00,50.7,40.9,29.95,SSW,197,0.0,0.0,69,0.00,,,0.00,0,Wunderground v.1.15,2013-04-20 14:05:00,
2013-04-20 07:15:00,51.0,40.8,29.96,SSW,197,0.0,0.0,68,0.00,,,0.00,0,Wunderground v.1.15,2013-04-20 14:15:00,
2013-04-20 07:24:00,51.4,41.2,29.96,SSW,197,0.0,0.0,68,0.00,,,0.00,0,Wunderground v.1.15,2013-04-20 14:24:00,
2013-04-20 07:29:00,51.7,41.9,29.96,SSW,197,0.0,0.0,69,0.00,,,0.00,0,Wunderground v.1.15,2013-04-20 14:29:00,
2013-04-20 07:39:00,52.6,43.1,29.97,SSW,197,0.0,0.0,70,0.00,,,0.00,0,Wunderground v.1.15,2013-04-20 14:39:00,
2013-04-20 07:45:00,53.2,43.7,29.97,SSW,197,0.0,0.0,70,0.00,,,0.00,0,Wunderground v.1.15,2013-04-20 14:45:00,
2013-04-20 07:54:00,54.1,44.5,29.97,SSW,197,0.0,0.0,70,0.00,,,0.00,0,Wunderground v.1.15,2013-04-20 14:54:00,
2013-04-20 07:59:00,54.6,45.0,29.97,SSW,197,0.0,0.0,70,0.00,,,0.00,0,Wunderground v.1.15,2013-04-20 14:59:00,
2013-04-20 08:05:00,55.0,45.0,29.97,SSW,197,0.0,0.0,69,0.00,,,0.00,0,Wunderground v.1.15,2013-04-20 15:05:00,
2013-04-20 08:15:00,56.2,45.4,29.97,SSW,197,0.0,0.0,67,0.00,,,0.00,0,Wunderground v.1.15,2013-04-20 15:15:00,
2013-04-20 08:20:00,56.9,45.3,29.97,SSW,197,0.0,0.0,65,0.00,,,0.00,0,Wunderground v.1.15,2013-04-20 15:20:00,
2013-04-20 08:29:00,58.3,46.2,29.97,SSW,197,0.0,0.0,64,0.00,,,0.00,0,Wunderground v.1.15,2013-04-20 15:29:00,
2013-04-20 08:39:00,59.5,44.7,29.97,SSW,197,0.0,0.0,58,0.00,,,0.00,0,Wunderground v.1.15,2013-04-20 15:39:00,
2013-04-20 08:45:00,60.2,44.9,29.97,SSW,197,0.0,0.0,57,0.00,,,0.00,0,Wunderground v.1.15,2013-04-20 15:45:00,
2013-04-20 08:54:00,61.2,44.9,29.97,SSW,197,0.0,0.0,55,0.00,,,0.00,0,Wunderground v.1.15,2013-04-20 15:54:00,
2013-04-20 08:59:00,61.6,40.6,29.98,SSW,197,0.0,0.0,46,0.00,,,0.00,0,Wunderground v.1.15,2013-04-20 15:59:00,
2013-04-20 09:05:00,62.0,39.8,29.97,SSW,197,0.0,0.0,44,0.00,,,0.00,0,Wunderground v.1.15,2013-04-20 16:05:00,
2013-04-20 09:14:00,62.7,39.9,29.97,SSW,197,0.0,0.0,43,0.00,,,0.00,0,Wunderground v.1.15,2013-04-20 16:14:00,
2013-04-20 09:19:00,63.1,39.0,29.97,SSW,197,0.0,0.0,41,0.00,,,0.00,0,Wunderground v.1.15,2013-04-20 16:19:00,
2013-04-20 09:24:00,63.4,38.6,29.97,SSW,197,0.0,0.0,40,0.00,,,0.00,0,Wunderground v.1.15,2013-04-20 16:24:00,
2013-04-20 09:29:00,63.9,38.4,29.97,SSW,197,3.0,3.0,39,0.00,,,0.00,0,Wunderground v.1.15,2013-04-20 16:29:00,
2013-04-20 09:39:00,64.8,38.6,29.98,SSW,197,0.0,0.0,38,0.00,,,0.00,0,Wunderground v.1.15,2013-04-20 16:39:00,
2013-04-20 09:44:00,65.4,39.1,29.97,SSW,197,0.0,0.0,38,0.00,,,0.00,0,Wunderground v.1.15,2013-04-20 16:44:00,
2013-04-20 09:50:00,65.8,38.8,29.97,SSW,197,0.0,0.0,37,0.00,,,0.00,0,Wunderground v.1.15,2013-04-20 16:50:00,
2013-04-20 09:59:00,66.1,38.4,29.97,SW,229,2.0,2.0,36,0.00,,,0.00,0,Wunderground v.1.15,2013-04-20 16:59:00,
2013-04-20 10:05:00,66.3,39.2,29.97,SSW,210,2.0,2.0,37,0.00,,,0.00,0,Wunderground v.1.15,2013-04-20 17:05:00,
2013-04-20 10:14:00,67.0,39.9,29.97,SSW,197,1.0,1.0,37,0.00,,,0.00,0,Wunderground v.1.15,2013-04-20 17:14:00,
2013-04-20 10:19:00,67.3,38.7,29.97,South,180,0.0,0.0,35,0.00,,,0.00,0,Wunderground v.1.15,2013-04-20 17:19:00,
2013-04-20 10:25:00,67.6,38.2,29.97,South,183,2.0,2.0,34,0.00,,,0.00,0,Wunderground v.1.15,2013-04-20 17:25:00,
2013-04-20 10:35:00,68.2,38.7,29.97,SSW,198,0.0,0.0,34,0.00,,,0.00,0,Wunderground v.1.15,2013-04-20 17:35:00,
2013-04-20 10:44:00,69.2,42.5,29.97,SSW,194,1.0,1.0,38,0.00,,,0.00,0,Wunderground v.1.15,2013-04-20 17:44:00,
2013-04-20 10:49:00,69.6,40.7,29.97,South,190,0.0,0.0,35,0.00,,,0.00,0,Wunderground v.1.15,2013-04-20 17:49:00,
2013-04-20 10:55:00,69.9,41.0,29.97,South,176,4.0,4.0,35,0.00,,,0.00,0,Wunderground v.1.15,2013-04-20 17:55:00,
2013-04-20 11:05:00,69.8,41.6,29.97,SSW,209,2.0,3.0,36,0.00,,,0.00,0,Wunderground v.1.15,2013-04-20 18:05:00,
2013-04-20 11:14:00,69.7,42.3,29.96,SW,216,3.0,3.0,37,0.00,,,0.00,0,Wunderground v.1.15,2013-04-20 18:14:00,
2013-04-20 11:19:00,69.8,40.9,29.96,South,188,0.0,0.0,35,0.00,,,0.00,0,Wunderground v.1.15,2013-04-20 18:19:00,
2013-04-20 11:25:00,69.9,41.0,29.96,SSW,194,3.0,3.0,35,0.00,,,0.00,0,Wunderground v.1.15,2013-04-20 18:25:00,
2013-04-20 11:34:00,69.3,41.9,29.96,ESE,122,2.0,2.0,37,0.00,,,0.00,0,Wunderground v.1.15,2013-04-20 18:34:00,
2013-04-20 11:44:00,68.9,40.8,29.96,South,186,2.0,2.0,36,0.00,,,0.00,0,Wunderground v.1.15,2013-04-20 18:44:00,
2013-04-20 11:49:00,69.1,42.4,29.95,SSE,167,2.0,2.0,38,0.00,,,0.00,0,Wunderground v.1.15,2013-04-20 18:49:00,
2013-04-20 11:54:00,69.8,42.3,29.96,SSE,152,0.0,2.0,37,0.00,,,0.00,0,Wunderground v.1.15,2013-04-20 18:54:00,
2013-04-20 12:00:00,70.0,41.8,29.95,South,182,0.0,0.0,36,0.00,,,0.00,0,Wunderground v.1.15,2013-04-20 19:00:00,
2013-04-20 12:05:00,69.9,42.4,29.95,SE,144,0.0,0.0,37,0.00,,,0.00,0,Wunderground v.1.15,2013-04-20 19:05:00,
2013-04-20 12:14:00,69.4,42.7,29.95,SW,218,7.0,8.0,38,0.00,,,0.00,0,Wunderground v.1.15,2013-04-20 19:14:00,
2013-04-20 12:19:00,69.0,43.0,29.95,SSE,158,3.0,3.0,39,0.00,,,0.00,0,Wunderground v.1.15,2013-04-20 19:19:00,
2013-04-20 12:25:00,69.2,42.5,29.95,SE,142,4.0,4.0,38,0.00,,,0.00,0,Wunderground v.1.15,2013-04-20 19:25:00,
2013-04-20 12:34:00,69.4,42.7,29.95,South,187,2.0,5.0,38,0.00,,,0.00,0,Wunderground v.1.15,2013-04-20 19:34:00,
2013-04-20 12:40:00,70.1,43.3,29.94,SSW,201,1.0,1.0,38,0.00,,,0.00,0,Wunderground v.1.15,2013-04-20 19:40:00,
2013-04-20 12:49:00,71.5,41.6,29.94,SSE,150,0.0,0.0,34,0.00,,,0.00,0,Wunderground v.1.15,2013-04-20 19:49:00,
2013-04-20 12:54:00,71.8,41.1,29.94,SSE,154,3.0,3.0,33,0.00,,,0.00,0,Wunderground v.1.15,2013-04-20 19:54:00,
2013-04-20 12:59:00,72.1,39.8,29.94,SSE,162,0.0,0.0,31,0.00,,,0.00,0,Wunderground v.1.15,2013-04-20 19:59:00,
2013-04-20 13:04:00,72.8,41.2,29.93,SSW,199,0.0,0.0,32,0.00,,,0.00,0,Wunderground v.1.15,2013-04-20 20:04:00,
2013-04-20 13:15:00,74.3,41.7,29.93,SSE,150,2.0,2.0,31,0.00,,,0.00,0,Wunderground v.1.15,2013-04-20 20:15:00,
2013-04-20 13:24:00,73.9,43.8,29.93,SSE,153,1.0,1.0,34,0.00,,,0.00,0,Wunderground v.1.15,2013-04-20 20:24:00,
2013-04-20 13:29:00,74.2,44.0,29.93,SSW,205,2.0,2.0,34,0.00,,,0.00,0,Wunderground v.1.15,2013-04-20 20:29:00,
2013-04-20 13:40:00,74.2,44.8,29.92,SSE,168,0.0,0.0,35,0.00,,,0.00,0,Wunderground v.1.15,2013-04-20 20:40:00,
2013-04-20 13:49:00,73.6,45.0,29.92,SSE,159,0.0,0.0,36,0.00,,,0.00,0,Wunderground v.1.15,2013-04-20 20:49:00,
2013-04-20 13:54:00,74.3,46.3,29.92,ESE,123,1.0,1.0,37,0.00,,,0.00,0,Wunderground v.1.15,2013-04-20 20:54:00,
2013-04-20 14:00:00,74.3,45.6,29.92,SE,141,0.0,0.0,36,0.00,,,0.00,0,Wunderground v.1.15,2013-04-20 21:00:00,
2013-04-20 14:05:00,74.3,45.6,29.92,South,172,1.0,1.0,36,0.00,,,0.00,0,Wunderground v.1.15,2013-04-20 21:05:00,
2013-04-20 14:14:00,74.8,46.1,29.92,SSE,160,0.0,0.0,36,0.00,,,0.00,0,Wunderground v.1.15,2013-04-20 21:14:00,
2013-04-20 14:19:00,75.4,45.1,29.91,South,188,2.0,2.0,34,0.00,,,0.00,0,Wunderground v.1.15,2013-04-20 21:19:00,
2013-04-20 14:24:00,75.3,45.0,29.91,SSW,194,4.0,4.0,34,0.00,,,0.00,0,Wunderground v.1.15,2013-04-20 21:24:00,
2013-04-20 14:29:00,75.1,44.8,29.92,ESE,109,0.0,0.0,34,0.00,,,0.00,0,Wunderground v.1.15,2013-04-20 21:29:00,
2013-04-20 14:39:00,74.5,45.0,29.92,South,190,8.0,8.0,35,0.00,,,0.00,0,Wunderground v.1.15,2013-04-20 21:39:00,
2013-04-20 14:45:00,74.7,44.5,29.91,South,180,3.0,8.0,34,0.00,,,0.00,0,Wunderground v.1.15,2013-04-20 21:45:00,
2013-04-20 14:54:00,75.2,40.7,29.91,South,184,1.0,3.0,29,0.00,,,0.00,0,Wunderground v.1.15,2013-04-20 21:54:00,
2013-04-20 14:59:00,75.8,42.1,29.91,SSE,163,0.0,0.0,30,0.00,,,0.00,0,Wunderground v.1.15,2013-04-20 21:59:00,
2013-04-20 15:05:00,76.1,42.4,29.91,SSW,203,2.0,2.0,30,0.00,,,0.00,0,Wunderground v.1.15,2013-04-20 22:05:00,
2013-04-20 15:14:00,77.0,44.0,29.90,SW,233,0.0,1.0,31,0.00,,,0.00,0,Wunderground v.1.15,2013-04-20 22:14:00,
2013-04-20 15:19:00,77.6,44.6,29.90,South,188,0.0,0.0,31,0.00,,,0.00,0,Wunderground v.1.15,2013-04-20 22:19:00,
2013-04-20 15:24:00,78.0,44.9,29.90,SSE,162,1.0,1.0,31,0.00,,,0.00,0,Wunderground v.1.15,2013-04-20 22:24:00,
2013-04-20 15:30:00,78.7,41.9,29.89,SSW,209,5.0,5.0,27,0.00,,,0.00,0,Wunderground v.1.15,2013-04-20 22:30:00,
2013-04-20 15:35:00,79.0,42.2,29.89,SW,217,0.0,5.0,27,0.00,,,0.00,0,Wunderground v.1.15,2013-04-20 22:35:00,
2013-04-20 15:44:00,79.8,43.8,29.89,South,179,0.0,0.0,28,0.00,,,0.00,0,Wunderground v.1.15,2013-04-20 22:44:00,
2013-04-20 15:49:00,80.7,44.6,29.89,South,177,1.0,1.0,28,0.00,,,0.00,0,Wunderground v.1.15,2013-04-20 22:49:00,
2013-04-20 15:59:00,81.2,44.0,29.88,South,177,0.0,0.0,27,0.00,,,0.00,0,Wunderground v.1.15,2013-04-20 22:59:00,
2013-04-20 16:04:00,81.2,39.9,29.89,South,189,4.0,4.0,23,0.00,,,0.00,0,Wunderground v.1.15,2013-04-20 23:04:00,
2013-04-20 16:14:00,80.9,40.7,29.88,WNW,291,0.0,0.0,24,0.00,,,0.00,0,Wunderground v.1.15,2013-04-20 23:14:00,
2013-04-20 16:20:00,82.1,41.7,29.88,NW,322,0.0,0.0,24,0.00,,,0.00,0,Wunderground v.1.15,2013-04-20 23:20:00,
2013-04-20 16:29:00,83.4,44.9,29.88,NW,316,2.0,2.0,26,0.00,,,0.00,0,Wunderground v.1.15,2013-04-20 23:29:00,
2013-04-20 16:39:00,82.8,41.2,29.88,SW,214,0.0,0.0,23,0.00,,,0.00,0,Wunderground v.1.15,2013-04-20 23:39:00,
2013-04-20 16:44:00,81.2,42.0,29.88,SSW,208,3.0,3.0,25,0.00,,,0.00,0,Wunderground v.1.15,2013-04-20 23:44:00,
2013-04-20 16:49:00,80.0,41.0,29.88,SSW,210,0.0,0.0,25,0.00,,,0.00,0,Wunderground v.1.15,2013-04-20 23:49:00,
2013-04-20 16:54:00,78.9,42.1,29.88,SSW,192,1.0,1.0,27,0.00,,,0.00,0,Wunderground v.1.15,2013-04-20 23:54:00,
2013-04-20 17:00:00,78.4,40.7,29.88,SSW,196,0.0,0.0,26,0.00,,,0.00,0,Wunderground v.1.15,2013-04-21 00:00:00,
2013-04-20 17:05:00,78.4,41.6,29.88,South,183,0.0,0.0,27,0.00,,,0.00,0,Wunderground v.1.15,2013-04-21 00:05:00,
2013-04-20 17:14:00,80.5,43.4,29.88,WSW,237,0.0,0.0,27,0.00,,,0.00,0,Wunderground v.1.15,2013-04-21 00:14:00,
2013-04-20 17:19:00,82.2,42.9,29.88,NW,304,1.0,1.0,25,0.00,,,0.00,0,Wunderground v.1.15,2013-04-21 00:19:00,
2013-04-20 17:29:00,85.0,45.2,29.88,NW,304,0.0,0.0,25,0.00,,,0.00,0,Wunderground v.1.15,2013-04-21 00:29:00,
2013-04-20 17:35:00,84.4,45.8,29.88,NW,304,0.0,0.0,26,0.00,,,0.00,0,Wunderground v.1.15,2013-04-21 00:35:00,
2013-04-20 17:44:00,79.6,47.1,29.88,NW,304,0.0,0.0,32,0.00,,,0.00,0,Wunderground v.1.15,2013-04-21 00:44:00,
2013-04-20 17:49:00,78.9,47.3,29.88,NW,304,0.0,0.0,33,0.00,,,0.00,0,Wunderground v.1.15,2013-04-21 00:49:00,
2013-04-20 17:54:00,77.9,46.5,29.88,NW,304,0.0,0.0,33,0.00,,,0.00,0,Wunderground v.1.15,2013-04-21 00:54:00,
2013-04-20 18:00:00,77.8,47.2,29.88,NW,304,0.0,0.0,34,0.00,,,0.00,0,Wunderground v.1.15,2013-04-21 01:00:00,
2013-04-20 18:05:00,77.8,45.6,29.88,NW,304,0.0,0.0,32,0.00,,,0.00,0,Wunderground v.1.15,2013-04-21 01:05:00,
2013-04-20 18:14:00,77.5,39.9,29.89,NW,304,0.0,1.0,26,0.00,,,0.00,0,Wunderground v.1.15,2013-04-21 01:14:00,
2013-04-20 18:19:00,77.1,39.6,29.89,NW,304,0.0,0.0,26,0.00,,,0.00,0,Wunderground v.1.15,2013-04-21 01:19:00,
2013-04-20 18:24:00,76.5,38.0,29.89,WNW,303,0.0,0.0,25,0.00,,,0.00,0,Wunderground v.1.15,2013-04-21 01:24:00,
2013-04-20 18:30:00,75.8,43.0,29.89,WNW,303,0.0,0.0,31,0.00,,,0.00,0,Wunderground v.1.15,2013-04-21 01:30:00,
2013-04-20 18:39:00,74.0,42.3,29.89,SW,218,0.0,0.0,32,0.00,,,0.00,0,Wunderground v.1.15,2013-04-21 01:39:00,
2013-04-20 18:49:00,70.8,45.3,29.90,SSW,209,2.0,2.0,40,0.00,,,0.00,0,Wunderground v.1.15,2013-04-21 01:49:00,
2013-04-20 18:54:00,68.9,43.6,29.90,SW,234,1.0,2.0,40,0.00,,,0.00,0,Wunderground v.1.15,2013-04-21 01:54:00,
2013-04-20 18:59:00,67.8,42.6,29.90,South,175,2.0,2.0,40,0.00,,,0.00,0,Wunderground v.1.15,2013-04-21 01:59:00,
2013-04-20 19:05:00,67.0,43.1,29.90,SSW,207,0.0,2.0,42,0.00,,,0.00,0,Wunderground v.1.15,2013-04-21 02:05:00,
2013-04-20 19:14:00,67.0,47.2,29.91,South,175,0.0,0.0,49,0.00,,,0.00,0,Wunderground v.1.15,2013-04-21 02:14:00,
2013-04-20 19:19:00,67.4,49.2,29.91,South,175,0.0,0.0,52,0.00,,,0.00,0,Wunderground v.1.15,2013-04-21 02:19:00,
2013-04-20 19:25:00,67.3,49.6,29.91,South,174,1.0,1.0,53,0.00,,,0.00,0,Wunderground v.1.15,2013-04-21 02:25:00,
2013-04-20 19:34:00,66.7,50.5,29.92,South,175,0.0,0.0,56,0.00,,,0.00,0,Wunderground v.1.15,2013-04-21 02:34:00,
2013-04-20 19:40:00,66.4,50.2,29.92,South,175,0.0,0.0,56,0.00,,,0.00,0,Wunderground v.1.15,2013-04-21 02:40:00,
2013-04-20 19:49:00,65.5,48.9,29.92,South,175,0.0,0.0,55,0.00,,,0.00,0,Wunderground v.1.15,2013-04-21 02:49:00,
2013-04-20 19:54:00,65.1,49.5,29.92,South,175,0.0,0.0,57,0.00,,,0.00,0,Wunderground v.1.15,2013-04-21 02:54:00,
2013-04-20 20:00:00,64.9,48.3,29.93,South,174,0.0,0.0,55,0.00,,,0.00,0,Wunderground v.1.15,2013-04-21 03:00:00,
2013-04-20 20:05:00,64.7,48.6,29.93,South,175,0.0,0.0,56,0.00,,,0.00,0,Wunderground v.1.15,2013-04-21 03:05:00,
2013-04-20 20:14:00,64.4,47.9,29.93,South,175,0.0,0.0,55,0.00,,,0.00,0,Wunderground v.1.15,2013-04-21 03:14:00,
2013-04-20 20:19:00,64.4,47.9,29.93,South,175,0.0,0.0,55,0.00,,,0.00,0,Wunderground v.1.15,2013-04-21 03:19:00,
2013-04-20 20:25:00,64.3,47.8,29.93,South,175,0.0,0.0,55,0.00,,,0.00,0,Wunderground v.1.15,2013-04-21 03:25:00,
2013-04-20 20:34:00,64.1,48.1,29.93,South,175,0.0,0.0,56,0.00,,,0.00,0,Wunderground v.1.15,2013-04-21 03:34:00,
2013-04-20 20:44:00,63.5,48.0,29.94,South,175,0.0,0.0,57,0.00,,,0.00,0,Wunderground v.1.15,2013-04-21 03:44:00,
2013-04-20 20:49:00,63.3,47.8,29.94,South,175,0.0,0.0,57,0.00,,,0.00,0,Wunderground v.1.15,2013-04-21 03:49:00,
2013-04-20 20:54:00,63.1,47.6,29.94,South,174,0.0,0.0,57,0.00,,,0.00,0,Wunderground v.1.15,2013-04-21 03:54:00,
2013-04-20 21:00:00,62.9,47.4,29.94,South,175,0.0,0.0,57,0.00,,,0.00,0,Wunderground v.1.15,2013-04-21 04:00:00,
2013-04-20 21:05:00,62.6,47.1,29.94,South,175,0.0,0.0,57,0.00,,,0.00,0,Wunderground v.1.15,2013-04-21 04:05:00,
2013-04-20 21:14:00,62.3,46.9,29.95,South,175,0.0,0.0,57,0.00,,,0.00,0,Wunderground v.1.15,2013-04-21 04:14:00,
2013-04-20 21:19:00,62.0,46.6,29.95,South,175,0.0,0.0,57,0.00,,,0.00,0,Wunderground v.1.15,2013-04-21 04:19:00,
2013-04-20 21:24:00,62.1,47.6,29.95,South,175,0.0,0.0,59,0.00,,,0.00,0,Wunderground v.1.15,2013-04-21 04:24:00,
2013-04-20 21:34:00,62.3,47.8,29.96,South,174,0.0,0.0,59,0.00,,,0.00,0,Wunderground v.1.15,2013-04-21 04:34:00,
2013-04-20 21:39:00,62.4,47.9,29.96,South,175,0.0,0.0,59,0.00,,,0.00,0,Wunderground v.1.15,2013-04-21 04:39:00,
2013-04-20 21:44:00,62.3,48.7,29.96,South,175,0.0,0.0,61,0.00,,,0.00,0,Wunderground v.1.15,2013-04-21 04:44:00,
2013-04-20 21:49:00,61.9,49.2,29.96,South,175,0.0,0.0,63,0.00,,,0.00,0,Wunderground v.1.15,2013-04-21 04:49:00,
2013-04-20 21:54:00,61.4,49.5,29.96,South,175,0.0,0.0,65,0.00,,,0.00,0,Wunderground v.1.15,2013-04-21 04:54:00,
2013-04-20 22:05:00,60.7,49.3,29.96,South,175,0.0,0.0,66,0.00,,,0.00,0,Wunderground v.1.15,2013-04-21 05:05:00,
2013-04-20 22:14:00,60.4,49.8,29.96,South,175,0.0,0.0,68,0.00,,,0.00,0,Wunderground v.1.15,2013-04-21 05:14:00,
2013-04-20 22:20:00,60.2,50.4,29.96,South,175,0.0,0.0,70,0.00,,,0.00,0,Wunderground v.1.15,2013-04-21 05:20:00,
2013-04-20 22:29:00,59.9,50.5,29.96,South,175,0.0,0.0,71,0.00,,,0.00,0,Wunderground v.1.15,2013-04-21 05:29:00,
2013-04-20 22:39:00,59.6,50.6,29.97,South,175,0.0,0.0,72,0.00,,,0.00,0,Wunderground v.1.15,2013-04-21 05:39:00,
2013-04-20 22:44:00,59.5,50.8,29.97,South,175,0.0,0.0,73,0.00,,,0.00,0,Wunderground v.1.15,2013-04-21 05:44:00,
2013-04-20 22:50:00,59.5,50.8,29.97,South,175,0.0,0.0,73,0.00,,,0.00,0,Wunderground v.1.15,2013-04-21 05:50:00,
2013-04-20 22:59:00,59.4,51.5,29.96,South,175,0.0,0.0,75,0.00,,,0.00,0,Wunderground v.1.15,2013-04-21 05:59:00,
2013-04-20 23:05:00,59.3,51.4,29.96,South,175,0.0,0.0,75,0.00,,,0.00,0,Wunderground v.1.15,2013-04-21 06:05:00,
2013-04-20 23:14:00,59.3,51.4,29.96,South,175,0.0,0.0,75,0.00,,,0.00,0,Wunderground v.1.15,2013-04-21 06:14:00,
2013-04-20 23:19:00,59.2,51.3,29.96,South,175,0.0,0.0,75,0.00,,,0.00,0,Wunderground v.1.15,2013-04-21 06:19:00,
2013-04-20 23:24:00,59.1,51.2,29.96,South,175,0.0,0.0,75,0.00,,,0.00,0,Wunderground v.1.15,2013-04-21 06:24:00,
2013-04-20 23:34:00,59.0,51.1,29.96,South,175,0.0,0.0,75,0.00,,,0.00,0,Wunderground v.1.15,2013-04-21 06:34:00,
2013-04-20 23:39:00,59.0,51.1,29.96,South,175,0.0,0.0,75,0.00,,,0.00,0,Wunderground v.1.15,2013-04-21 06:39:00,
2013-04-20 23:44:00,59.0,51.1,29.96,South,175,0.0,0.0,75,0.00,,,0.00,0,Wunderground v.1.15,2013-04-21 06:44:00,
2013-04-20 23:50:00,58.9,51.0,29.96,South,175,0.0,0.0,75,0.00,,,0.00,0,Wunderground v.1.15,2013-04-21 06:50:00,
2013-04-20 23:59:00,58.7,50.4,29.96,South,175,0.0,0.0,74,0.00,,,0.00,0,Wunderground v.1.15,2013-04-21 06:59:00,